0TX1 – Local Weather Observations

Pecan Plantation

This weather station is operated by a private user located just north of the field. Data is gathered via OpenWeatherMap.org.

Last updated:
2020-09-27 14:22:33(9:22 am)

Temperature: 77.9 °F

Sunrise / Sunset: 7:21 am / 7:21 pm

Civil Dawn / Dusk: 6:56 am / 7:45 pm

Nearby METARs

KGDJ 271415Z AUTO 17010G14KT 10SM OVC020 26/21 A2977 RMK AO2 T02600210

KCPT 271355Z AUTO 16014G20KT 10SM CLR 25/23 A2978 RMK A01

KFWS 271350Z 160KT 12 7SM CLR 25/21 A2977

KSEP 271415Z AUTO 19013G18KT 10SM SCT014 SCT018 24/21 A2978 RMK AO2 T02380207